sensor_id;sensor_type;location;lat;lon;timestamp;temperature;humidity
4701;DHT22;8724;51.272;6.554;2023-03-21T00:02:08;13.20;99.90
4701;DHT22;8724;51.272;6.554;2023-03-21T00:04:36;13.20;99.90
4701;DHT22;8724;51.272;6.554;2023-03-21T00:07:19;13.20;99.90
4701;DHT22;8724;51.272;6.554;2023-03-21T00:09:48;13.20;99.90
4701;DHT22;8724;51.272;6.554;2023-03-21T00:12:16;13.20;99.90
4701;DHT22;8724;51.272;6.554;2023-03-21T00:14:47;13.20;99.90
4701;DHT22;8724;51.272;6.554;2023-03-21T00:17:15;13.20;99.90
4701;DHT22;8724;51.272;6.554;2023-03-21T00:19:48;13.20;99.90
4701;DHT22;8724;51.272;6.554;2023-03-21T00:22:18;13.20;99.90
4701;DHT22;8724;51.272;6.554;2023-03-21T00:24:47;13.20;99.90
4701;DHT22;8724;51.272;6.554;2023-03-21T00:27:15;13.20;99.90
4701;DHT22;8724;51.272;6.554;2023-03-21T00:30:06;13.20;99.90
4701;DHT22;8724;51.272;6.554;2023-03-21T00:32:34;13.20;99.90
4701;DHT22;8724;51.272;6.554;2023-03-21T00:35:15;13.20;99.90
4701;DHT22;8724;51.272;6.554;2023-03-21T00:38:07;13.20;99.90
4701;DHT22;8724;51.272;6.554;2023-03-21T00:40:36;13.20;99.90
4701;DHT22;8724;51.272;6.554;2023-03-21T00:43:13;13.20;99.90
4701;DHT22;8724;51.272;6.554;2023-03-21T00:45:43;13.20;99.90
4701;DHT22;8724;51.272;6.554;2023-03-21T00:48:12;13.10;99.90
4701;DHT22;8724;51.272;6.554;2023-03-21T00:50:41;13.20;99.90
4701;DHT22;8724;51.272;6.554;2023-03-21T00:53:15;13.20;99.90
4701;DHT22;8724;51.272;6.554;2023-03-21T00:55:45;13.20;99.90
4701;DHT22;8724;51.272;6.554;2023-03-21T00:58:14;13.20;99.90
4701;DHT22;8724;51.272;6.554;2023-03-21T01:00:43;13.20;99.90
4701;DHT22;8724;51.272;6.554;2023-03-21T01:03:14;13.20;99.90
4701;DHT22;8724;51.272;6.554;2023-03-21T01:05:55;13.20;99.90
4701;DHT22;8724;51.272;6.554;2023-03-21T01:08:34;13.10;99.90
4701;DHT22;8724;51.272;6.554;2023-03-21T01:11:21;13.20;99.90
4701;DHT22;8724;51.272;6.554;2023-03-21T01:13:50;13.20;99.90
4701;DHT22;8724;51.272;6.554;2023-03-21T01:16:37;13.20;99.90
4701;DHT22;8724;51.272;6.554;2023-03-21T01:19:07;13.20;99.90
4701;DHT22;8724;51.272;6.554;2023-03-21T01:21:50;13.20;99.90
4701;DHT22;8724;51.272;6.554;2023-03-21T01:24:20;13.20;99.90
4701;DHT22;8724;51.272;6.554;2023-03-21T01:26:49;13.20;99.90
4701;DHT22;8724;51.272;6.554;2023-03-21T01:29:17;13.10;99.90
4701;DHT22;8724;51.272;6.554;2023-03-21T01:31:46;13.10;99.90
4701;DHT22;8724;51.272;6.554;2023-03-21T01:34:14;13.10;99.90
4701;DHT22;8724;51.272;6.554;2023-03-21T01:36:43;13.10;99.90
4701;DHT22;8724;51.272;6.554;2023-03-21T01:39:16;13.10;99.90
4701;DHT22;8724;51.272;6.554;2023-03-21T01:41:48;13.10;99.90
4701;DHT22;8724;51.272;6.554;2023-03-21T01:44:20;13.10;99.90
4701;DHT22;8724;51.272;6.554;2023-03-21T01:46:50;13.10;99.90
4701;DHT22;8724;51.272;6.554;2023-03-21T01:49:47;13.10;99.90
4701;DHT22;8724;51.272;6.554;2023-03-21T01:52:28;13.10;99.90
4701;DHT22;8724;51.272;6.554;2023-03-21T01:55:09;13.10;99.90
4701;DHT22;8724;51.272;6.554;2023-03-21T01:58:13;13.10;99.90
4701;DHT22;8724;51.272;6.554;2023-03-21T02:01:00;13.10;99.90
4701;DHT22;8724;51.272;6.554;2023-03-21T02:03:50;13.10;99.90
4701;DHT22;8724;51.272;6.554;2023-03-21T02:06:43;13.10;99.90
4701;DHT22;8724;51.272;6.554;2023-03-21T02:09:26;13.10;99.90
4701;DHT22;8724;51.272;6.554;2023-03-21T02:11:56;13.10;99.90
4701;DHT22;8724;51.272;6.554;2023-03-21T02:14:31;13.10;99.90
4701;DHT22;8724;51.272;6.554;2023-03-21T02:17:11;13.10;99.90
4701;DHT22;8724;51.272;6.554;2023-03-21T02:20:14;13.20;99.90
4701;DHT22;8724;51.272;6.554;2023-03-21T02:23:13;13.10;99.90
4701;DHT22;8724;51.272;6.554;2023-03-21T02:26:31;13.10;99.90
4701;DHT22;8724;51.272;6.554;2023-03-21T02:29:31;13.10;99.90
4701;DHT22;8724;51.272;6.554;2023-03-21T02:32:09;13.10;99.90
4701;DHT22;8724;51.272;6.554;2023-03-21T02:35:20;13.20;99.90
4701;DHT22;8724;51.272;6.554;2023-03-21T02:37:56;13.20;99.90
4701;DHT22;8724;51.272;6.554;2023-03-21T02:40:32;13.20;99.90
4701;DHT22;8724;51.272;6.554;2023-03-21T02:43:06;13.20;99.90
4701;DHT22;8724;51.272;6.554;2023-03-21T02:45:51;13.20;99.90
4701;DHT22;8724;51.272;6.554;2023-03-21T02:48:23;13.20;99.90
4701;DHT22;8724;51.272;6.554;2023-03-21T02:51:12;13.20;99.90
4701;DHT22;8724;51.272;6.554;2023-03-21T02:53:48;13.20;99.90
4701;DHT22;8724;51.272;6.554;2023-03-21T02:56:38;13.20;99.90
4701;DHT22;8724;51.272;6.554;2023-03-21T02:59:08;13.10;99.90
4701;DHT22;8724;51.272;6.554;2023-03-21T03:01:36;13.10;99.90
4701;DHT22;8724;51.272;6.554;2023-03-21T03:04:17;13.10;99.90
4701;DHT22;8724;51.272;6.554;2023-03-21T03:07:02;13.20;99.90
4701;DHT22;8724;51.272;6.554;2023-03-21T03:09:42;13.20;99.90
4701;DHT22;8724;51.272;6.554;2023-03-21T03:12:21;13.10;99.90
4701;DHT22;8724;51.272;6.554;2023-03-21T03:14:56;13.10;99.90
4701;DHT22;8724;51.272;6.554;2023-03-21T03:17:45;13.10;99.90
4701;DHT22;8724;51.272;6.554;2023-03-21T03:20:22;13.20;99.90
4701;DHT22;8724;51.272;6.554;2023-03-21T03:22:56;13.20;99.90
4701;DHT22;8724;51.272;6.554;2023-03-21T03:25:31;13.10;99.90
4701;DHT22;8724;51.272;6.554;2023-03-21T03:28:14;13.10;99.90
4701;DHT22;8724;51.272;6.554;2023-03-21T03:30:44;13.10;99.90
4701;DHT22;8724;51.272;6.554;2023-03-21T03:33:38;13.10;99.90
4701;DHT22;8724;51.272;6.554;2023-03-21T03:36:10;13.10;99.90
4701;DHT22;8724;51.272;6.554;2023-03-21T03:38:59;13.10;99.90
4701;DHT22;8724;51.272;6.554;2023-03-21T03:41:36;13.10;99.90
4701;DHT22;8724;51.272;6.554;2023-03-21T03:44:31;13.10;99.90
4701;DHT22;8724;51.272;6.554;2023-03-21T03:47:07;13.10;99.90
4701;DHT22;8724;51.272;6.554;2023-03-21T03:49:45;13.10;99.90
4701;DHT22;8724;51.272;6.554;2023-03-21T03:52:17;13.10;99.90
4701;DHT22;8724;51.272;6.554;2023-03-21T03:54:56;13.10;99.90
4701;DHT22;8724;51.272;6.554;2023-03-21T03:57:30;13.10;99.90
4701;DHT22;8724;51.272;6.554;2023-03-21T03:59:59;13.10;99.90
4701;DHT22;8724;51.272;6.554;2023-03-21T04:02:48;13.10;99.90
4701;DHT22;8724;51.272;6.554;2023-03-21T04:05:21;13.10;99.90
4701;DHT22;8724;51.272;6.554;2023-03-21T04:07:50;13.10;99.90
4701;DHT22;8724;51.272;6.554;2023-03-21T04:10:26;13.10;99.90
4701;DHT22;8724;51.272;6.554;2023-03-21T04:12:56;13.10;99.90
4701;DHT22;8724;51.272;6.554;2023-03-21T04:15:47;13.10;99.90
4701;DHT22;8724;51.272;6.554;2023-03-21T04:18:16;13.40;99.90
4701;DHT22;8724;51.272;6.554;2023-03-21T04:20:45;13.10;99.90
4701;DHT22;8724;51.272;6.554;2023-03-21T04:23:15;13.10;99.90
4701;DHT22;8724;51.272;6.554;2023-03-21T04:25:45;13.10;99.90
4701;DHT22;8724;51.272;6.554;2023-03-21T04:28:27;13.10;99.90
4701;DHT22;8724;51.272;6.554;2023-03-21T04:31:09;13.10;99.90
4701;DHT22;8724;51.272;6.554;2023-03-21T04:33:53;13.10;99.90
4701;DHT22;8724;51.272;6.554;2023-03-21T04:36:29;13.10;99.90
4701;DHT22;8724;51.272;6.554;2023-03-21T04:39:06;13.10;99.90
4701;DHT22;8724;51.272;6.554;2023-03-21T04:41:39;13.10;99.90
4701;DHT22;8724;51.272;6.554;2023-03-21T04:44:11;13.10;99.90
4701;DHT22;8724;51.272;6.554;2023-03-21T04:46:40;13.10;99.90
4701;DHT22;8724;51.272;6.554;2023-03-21T04:49:10;13.10;99.90
4701;DHT22;8724;51.272;6.554;2023-03-21T04:51:38;13.10;99.90
4701;DHT22;8724;51.272;6.554;2023-03-21T04:54:11;13.10;99.90
4701;DHT22;8724;51.272;6.554;2023-03-21T04:56:40;13.10;99.90
4701;DHT22;8724;51.272;6.554;2023-03-21T04:59:12;13.10;99.90
4701;DHT22;8724;51.272;6.554;2023-03-21T05:01:41;13.10;99.90
4701;DHT22;8724;51.272;6.554;2023-03-21T05:04:12;13.10;99.90
4701;DHT22;8724;51.272;6.554;2023-03-21T05:06:42;13.10;99.90
4701;DHT22;8724;51.272;6.554;2023-03-21T05:09:12;13.10;99.90
4701;DHT22;8724;51.272;6.554;2023-03-21T05:11:41;13.10;99.90
4701;DHT22;8724;51.272;6.554;2023-03-21T05:14:16;13.10;99.90
4701;DHT22;8724;51.272;6.554;2023-03-21T05:16:46;13.10;99.90
4701;DHT22;8724;51.272;6.554;2023-03-21T05:19:22;13.10;99.90
4701;DHT22;8724;51.272;6.554;2023-03-21T05:21:54;13.10;99.90
4701;DHT22;8724;51.272;6.554;2023-03-21T05:24:25;13.00;99.90
4701;DHT22;8724;51.272;6.554;2023-03-21T05:26:54;13.00;99.90
4701;DHT22;8724;51.272;6.554;2023-03-21T05:29:36;13.00;99.90
4701;DHT22;8724;51.272;6.554;2023-03-21T05:32:06;13.00;99.90
4701;DHT22;8724;51.272;6.554;2023-03-21T05:34:35;13.00;99.90
4701;DHT22;8724;51.272;6.554;2023-03-21T05:37:03;13.10;99.90
4701;DHT22;8724;51.272;6.554;2023-03-21T05:39:45;13.10;99.90
4701;DHT22;8724;51.272;6.554;2023-03-21T05:42:24;13.00;99.90
4701;DHT22;8724;51.272;6.554;2023-03-21T05:44:54;13.00;99.90
4701;DHT22;8724;51.272;6.554;2023-03-21T05:47:29;13.00;99.90
4701;DHT22;8724;51.272;6.554;2023-03-21T05:49:59;13.00;99.90
4701;DHT22;8724;51.272;6.554;2023-03-21T05:52:29;13.00;99.90
4701;DHT22;8724;51.272;6.554;2023-03-21T05:55:00;13.00;99.90
4701;DHT22;8724;51.272;6.554;2023-03-21T05:57:30;13.00;99.90
4701;DHT22;8724;51.272;6.554;2023-03-21T06:00:10;13.00;99.90
4701;DHT22;8724;51.272;6.554;2023-03-21T06:02:41;13.00;99.90
4701;DHT22;8724;51.272;6.554;2023-03-21T06:05:46;13.00;99.90
4701;DHT22;8724;51.272;6.554;2023-03-21T06:08:20;13.00;99.90
4701;DHT22;8724;51.272;6.554;2023-03-21T06:10:50;13.00;99.90
4701;DHT22;8724;51.272;6.554;2023-03-21T06:13:18;12.70;99.90
4701;DHT22;8724;51.272;6.554;2023-03-21T06:15:49;13.00;99.90
4701;DHT22;8724;51.272;6.554;2023-03-21T06:18:21;13.00;99.90
4701;DHT22;8724;51.272;6.554;2023-03-21T06:20:58;13.00;99.90
4701;DHT22;8724;51.272;6.554;2023-03-21T06:23:26;13.00;99.90
4701;DHT22;8724;51.272;6.554;2023-03-21T06:25:55;13.00;99.90
4701;DHT22;8724;51.272;6.554;2023-03-21T06:28:25;13.00;99.90
4701;DHT22;8724;51.272;6.554;2023-03-21T06:30:55;13.00;99.90
4701;DHT22;8724;51.272;6.554;2023-03-21T06:33:26;13.00;99.90
4701;DHT22;8724;51.272;6.554;2023-03-21T06:35:56;13.00;99.90
4701;DHT22;8724;51.272;6.554;2023-03-21T06:38:27;13.10;99.90
4701;DHT22;8724;51.272;6.554;2023-03-21T06:40:56;13.00;99.90
4701;DHT22;8724;51.272;6.554;2023-03-21T06:43:30;12.90;99.90
4701;DHT22;8724;51.272;6.554;2023-03-21T06:46:03;13.00;99.90
4701;DHT22;8724;51.272;6.554;2023-03-21T06:48:33;13.00;99.90
4701;DHT22;8724;51.272;6.554;2023-03-21T06:51:01;13.00;99.90
4701;DHT22;8724;51.272;6.554;2023-03-21T06:53:33;13.30;99.90
4701;DHT22;8724;51.272;6.554;2023-03-21T06:56:18;13.00;99.90
4701;DHT22;8724;51.272;6.554;2023-03-21T06:58:47;13.00;99.90
4701;DHT22;8724;51.272;6.554;2023-03-21T07:01:38;13.00;99.90
4701;DHT22;8724;51.272;6.554;2023-03-21T07:04:07;13.00;99.90
4701;DHT22;8724;51.272;6.554;2023-03-21T07:06:35;13.00;99.90
4701;DHT22;8724;51.272;6.554;2023-03-21T07:09:05;13.20;99.90
4701;DHT22;8724;51.272;6.554;2023-03-21T07:11:35;13.00;99.90
4701;DHT22;8724;51.272;6.554;2023-03-21T07:14:04;13.00;99.90
4701;DHT22;8724;51.272;6.554;2023-03-21T07:16:33;13.00;99.90
4701;DHT22;8724;51.272;6.554;2023-03-21T07:19:03;13.00;99.90
4701;DHT22;8724;51.272;6.554;2023-03-21T07:21:32;13.00;99.90
4701;DHT22;8724;51.272;6.554;2023-03-21T07:24:00;13.10;99.90
4701;DHT22;8724;51.272;6.554;2023-03-21T07:26:29;13.10;99.90
4701;DHT22;8724;51.272;6.554;2023-03-21T07:28:58;13.10;99.90
4701;DHT22;8724;51.272;6.554;2023-03-21T07:31:26;13.10;99.90
4701;DHT22;8724;51.272;6.554;2023-03-21T07:33:55;13.10;99.90
4701;DHT22;8724;51.272;6.554;2023-03-21T07:36:25;13.10;99.90
4701;DHT22;8724;51.272;6.554;2023-03-21T07:38:54;13.10;99.90
4701;DHT22;8724;51.272;6.554;2023-03-21T07:41:23;13.10;99.90
4701;DHT22;8724;51.272;6.554;2023-03-21T07:43:52;13.10;99.90
4701;DHT22;8724;51.272;6.554;2023-03-21T07:46:20;13.10;99.90
4701;DHT22;8724;51.272;6.554;2023-03-21T07:48:49;13.10;99.90
4701;DHT22;8724;51.272;6.554;2023-03-21T07:51:17;13.20;99.90
4701;DHT22;8724;51.272;6.554;2023-03-21T07:53:47;13.10;99.90
4701;DHT22;8724;51.272;6.554;2023-03-21T07:56:15;13.10;99.90
4701;DHT22;8724;51.272;6.554;2023-03-21T07:58:44;13.10;99.90
4701;DHT22;8724;51.272;6.554;2023-03-21T08:01:12;13.10;99.90
4701;DHT22;8724;51.272;6.554;2023-03-21T08:03:41;13.10;99.90
4701;DHT22;8724;51.272;6.554;2023-03-21T08:06:10;13.10;99.90
4701;DHT22;8724;51.272;6.554;2023-03-21T08:08:39;13.10;99.90
4701;DHT22;8724;51.272;6.554;2023-03-21T08:11:10;13.10;99.90
4701;DHT22;8724;51.272;6.554;2023-03-21T08:13:39;13.10;99.90
4701;DHT22;8724;51.272;6.554;2023-03-21T08:16:08;13.20;99.90
4701;DHT22;8724;51.272;6.554;2023-03-21T08:18:36;13.20;99.90
4701;DHT22;8724;51.272;6.554;2023-03-21T08:21:05;13.20;99.90
4701;DHT22;8724;51.272;6.554;2023-03-21T08:23:35;13.20;99.90
4701;DHT22;8724;51.272;6.554;2023-03-21T08:26:04;13.20;99.90
4701;DHT22;8724;51.272;6.554;2023-03-21T08:28:35;13.20;99.90
4701;DHT22;8724;51.272;6.554;2023-03-21T08:31:06;13.20;99.90
4701;DHT22;8724;51.272;6.554;2023-03-21T08:33:35;13.20;99.90
4701;DHT22;8724;51.272;6.554;2023-03-21T08:36:05;13.20;99.90
4701;DHT22;8724;51.272;6.554;2023-03-21T08:38:34;13.20;99.90
4701;DHT22;8724;51.272;6.554;2023-03-21T08:41:03;13.20;99.90
4701;DHT22;8724;51.272;6.554;2023-03-21T08:43:31;13.20;99.90
4701;DHT22;8724;51.272;6.554;2023-03-21T08:46:01;13.20;99.90
4701;DHT22;8724;51.272;6.554;2023-03-21T08:48:30;13.20;99.90
4701;DHT22;8724;51.272;6.554;2023-03-21T08:50:59;13.20;99.90
4701;DHT22;8724;51.272;6.554;2023-03-21T08:53:28;13.20;99.90
4701;DHT22;8724;51.272;6.554;2023-03-21T08:55:56;13.20;99.90
4701;DHT22;8724;51.272;6.554;2023-03-21T08:58:25;13.20;99.90
4701;DHT22;8724;51.272;6.554;2023-03-21T09:00:53;13.20;99.90
4701;DHT22;8724;51.272;6.554;2023-03-21T09:03:23;13.20;99.90
4701;DHT22;8724;51.272;6.554;2023-03-21T09:05:53;13.20;99.90
4701;DHT22;8724;51.272;6.554;2023-03-21T09:08:21;13.20;99.90
4701;DHT22;8724;51.272;6.554;2023-03-21T09:10:52;13.30;99.90
4701;DHT22;8724;51.272;6.554;2023-03-21T09:13:20;13.20;99.90
4701;DHT22;8724;51.272;6.554;2023-03-21T09:15:49;13.20;99.90
4701;DHT22;8724;51.272;6.554;2023-03-21T09:18:19;13.30;99.90
4701;DHT22;8724;51.272;6.554;2023-03-21T09:21:09;13.30;99.90
4701;DHT22;8724;51.272;6.554;2023-03-21T09:23:39;13.30;99.90
4701;DHT22;8724;51.272;6.554;2023-03-21T09:26:08;13.30;99.90
4701;DHT22;8724;51.272;6.554;2023-03-21T09:28:36;13.30;99.90
4701;DHT22;8724;51.272;6.554;2023-03-21T09:31:05;13.30;99.90
4701;DHT22;8724;51.272;6.554;2023-03-21T09:33:34;13.30;99.90
4701;DHT22;8724;51.272;6.554;2023-03-21T09:36:03;13.30;99.90
4701;DHT22;8724;51.272;6.554;2023-03-21T09:38:34;13.30;99.90
4701;DHT22;8724;51.272;6.554;2023-03-21T09:41:10;13.30;99.90
4701;DHT22;8724;51.272;6.554;2023-03-21T09:44:09;13.00;99.90
4701;DHT22;8724;51.272;6.554;2023-03-21T09:46:42;13.40;99.90
4701;DHT22;8724;51.272;6.554;2023-03-21T09:49:17;13.40;99.90
4701;DHT22;8724;51.272;6.554;2023-03-21T09:51:48;13.40;99.90
4701;DHT22;8724;51.272;6.554;2023-03-21T09:54:24;13.40;99.90
4701;DHT22;8724;51.272;6.554;2023-03-21T09:56:55;13.40;99.90
4701;DHT22;8724;51.272;6.554;2023-03-21T09:59:28;13.40;99.90
4701;DHT22;8724;51.272;6.554;2023-03-21T10:02:00;13.40;99.90
4701;DHT22;8724;51.272;6.554;2023-03-21T10:04:30;13.40;99.90
4701;DHT22;8724;51.272;6.554;2023-03-21T10:07:01;13.40;99.90
4701;DHT22;8724;51.272;6.554;2023-03-21T10:09:31;13.40;99.90
4701;DHT22;8724;51.272;6.554;2023-03-21T10:12:03;13.40;99.90
4701;DHT22;8724;51.272;6.554;2023-03-21T10:14:36;13.40;99.90
4701;DHT22;8724;51.272;6.554;2023-03-21T10:17:16;13.40;99.90
4701;DHT22;8724;51.272;6.554;2023-03-21T10:19:49;13.40;99.90
4701;DHT22;8724;51.272;6.554;2023-03-21T10:22:18;13.40;99.90
4701;DHT22;8724;51.272;6.554;2023-03-21T10:24:48;13.40;99.90
4701;DHT22;8724;51.272;6.554;2023-03-21T10:27:16;13.40;99.90
4701;DHT22;8724;51.272;6.554;2023-03-21T10:29:45;13.40;99.90
4701;DHT22;8724;51.272;6.554;2023-03-21T10:32:15;13.40;99.90
4701;DHT22;8724;51.272;6.554;2023-03-21T10:34:47;13.40;99.90
4701;DHT22;8724;51.272;6.554;2023-03-21T10:37:16;13.50;99.90
4701;DHT22;8724;51.272;6.554;2023-03-21T10:39:46;13.50;99.90
4701;DHT22;8724;51.272;6.554;2023-03-21T10:42:19;13.40;99.90
4701;DHT22;8724;51.272;6.554;2023-03-21T10:44:51;13.50;99.90
4701;DHT22;8724;51.272;6.554;2023-03-21T10:47:23;13.50;99.90
4701;DHT22;8724;51.272;6.554;2023-03-21T10:49:52;13.50;99.90
4701;DHT22;8724;51.272;6.554;2023-03-21T10:52:41;13.50;99.90
4701;DHT22;8724;51.272;6.554;2023-03-21T10:55:18;13.50;99.90
4701;DHT22;8724;51.272;6.554;2023-03-21T10:57:52;13.50;99.90
4701;DHT22;8724;51.272;6.554;2023-03-21T11:00:27;13.50;99.90
4701;DHT22;8724;51.272;6.554;2023-03-21T11:02:56;13.50;99.90
4701;DHT22;8724;51.272;6.554;2023-03-21T11:05:32;13.60;99.90
4701;DHT22;8724;51.272;6.554;2023-03-21T11:08:03;13.50;99.90
4701;DHT22;8724;51.272;6.554;2023-03-21T11:10:35;13.60;99.90
4701;DHT22;8724;51.272;6.554;2023-03-21T11:13:12;13.60;99.90
4701;DHT22;8724;51.272;6.554;2023-03-21T11:15:52;13.60;99.90
4701;DHT22;8724;51.272;6.554;2023-03-21T11:18:22;13.60;99.90
4701;DHT22;8724;51.272;6.554;2023-03-21T11:20:55;13.60;99.90
4701;DHT22;8724;51.272;6.554;2023-03-21T11:23:26;13.60;99.90
4701;DHT22;8724;51.272;6.554;2023-03-21T11:25:56;13.60;99.90
4701;DHT22;8724;51.272;6.554;2023-03-21T11:28:32;13.60;99.90
4701;DHT22;8724;51.272;6.554;2023-03-21T11:31:04;13.70;99.90
4701;DHT22;8724;51.272;6.554;2023-03-21T11:33:35;13.70;99.90
4701;DHT22;8724;51.272;6.554;2023-03-21T11:36:06;13.70;99.90
4701;DHT22;8724;51.272;6.554;2023-03-21T11:38:37;13.70;99.90
4701;DHT22;8724;51.272;6.554;2023-03-21T11:41:06;13.70;99.90
4701;DHT22;8724;51.272;6.554;2023-03-21T11:43:37;13.70;99.90
4701;DHT22;8724;51.272;6.554;2023-03-21T11:46:07;13.70;99.90
4701;DHT22;8724;51.272;6.554;2023-03-21T11:48:40;13.70;99.90
4701;DHT22;8724;51.272;6.554;2023-03-21T11:51:19;13.70;99.90
4701;DHT22;8724;51.272;6.554;2023-03-21T11:53:58;13.70;99.90
4701;DHT22;8724;51.272;6.554;2023-03-21T11:56:31;13.70;99.90
4701;DHT22;8724;51.272;6.554;2023-03-21T11:59:16;13.70;99.90
4701;DHT22;8724;51.272;6.554;2023-03-21T12:02:02;13.70;99.90
4701;DHT22;8724;51.272;6.554;2023-03-21T12:04:39;13.70;99.90
4701;DHT22;8724;51.272;6.554;2023-03-21T12:07:32;13.70;99.90
4701;DHT22;8724;51.272;6.554;2023-03-21T12:10:22;13.70;99.90
4701;DHT22;8724;51.272;6.554;2023-03-21T12:13:00;13.70;99.90
4701;DHT22;8724;51.272;6.554;2023-03-21T12:15:38;13.70;99.90
4701;DHT22;8724;51.272;6.554;2023-03-21T12:18:18;13.70;99.90
4701;DHT22;8724;51.272;6.554;2023-03-21T12:20:52;13.70;99.90
4701;DHT22;8724;51.272;6.554;2023-03-21T12:23:41;13.70;99.90
4701;DHT22;8724;51.272;6.554;2023-03-21T12:26:20;13.70;99.90
4701;DHT22;8724;51.272;6.554;2023-03-21T12:29:01;13.80;99.90
4701;DHT22;8724;51.272;6.554;2023-03-21T12:31:42;13.80;99.90
4701;DHT22;8724;51.272;6.554;2023-03-21T12:34:22;13.80;99.90
4701;DHT22;8724;51.272;6.554;2023-03-21T12:37:13;13.80;99.90
4701;DHT22;8724;51.272;6.554;2023-03-21T12:39:47;13.80;99.90
4701;DHT22;8724;51.272;6.554;2023-03-21T12:45:20;13.80;99.90
4701;DHT22;8724;51.272;6.554;2023-03-21T12:48:05;13.90;99.90
4701;DHT22;8724;51.272;6.554;2023-03-21T12:50:37;13.90;99.90
4701;DHT22;8724;51.272;6.554;2023-03-21T12:53:13;13.90;99.90
4701;DHT22;8724;51.272;6.554;2023-03-21T12:55:44;13.90;99.90
4701;DHT22;8724;51.272;6.554;2023-03-21T12:58:15;13.90;99.90
4701;DHT22;8724;51.272;6.554;2023-03-21T13:00:47;13.90;99.90
4701;DHT22;8724;51.272;6.554;2023-03-21T13:03:20;13.90;99.90
4701;DHT22;8724;51.272;6.554;2023-03-21T13:06:06;13.90;99.90
4701;DHT22;8724;51.272;6.554;2023-03-21T13:08:37;14.00;99.90
4701;DHT22;8724;51.272;6.554;2023-03-21T13:11:11;14.00;99.90
4701;DHT22;8724;51.272;6.554;2023-03-21T13:13:44;14.00;99.90
4701;DHT22;8724;51.272;6.554;2023-03-21T13:16:17;14.00;99.90
4701;DHT22;8724;51.272;6.554;2023-03-21T13:18:54;14.00;99.90
4701;DHT22;8724;51.272;6.554;2023-03-21T13:21:38;14.00;99.90
4701;DHT22;8724;51.272;6.554;2023-03-21T13:24:23;14.10;99.90
4701;DHT22;8724;51.272;6.554;2023-03-21T13:27:00;14.10;99.90
4701;DHT22;8724;51.272;6.554;2023-03-21T13:29:31;14.10;99.90
4701;DHT22;8724;51.272;6.554;2023-03-21T13:32:08;14.10;99.90
4701;DHT22;8724;51.272;6.554;2023-03-21T13:34:39;14.10;99.90
4701;DHT22;8724;51.272;6.554;2023-03-21T13:37:14;14.20;99.90
4701;DHT22;8724;51.272;6.554;2023-03-21T13:39:45;14.20;99.90
4701;DHT22;8724;51.272;6.554;2023-03-21T13:42:21;14.20;99.90
4701;DHT22;8724;51.272;6.554;2023-03-21T13:44:54;14.20;99.90
4701;DHT22;8724;51.272;6.554;2023-03-21T13:47:34;14.30;99.90
4701;DHT22;8724;51.272;6.554;2023-03-21T13:50:24;14.30;99.90
4701;DHT22;8724;51.272;6.554;2023-03-21T13:53:20;14.30;99.90
4701;DHT22;8724;51.272;6.554;2023-03-21T13:56:20;14.30;99.90
4701;DHT22;8724;51.272;6.554;2023-03-21T13:59:08;14.30;99.90
4701;DHT22;8724;51.272;6.554;2023-03-21T14:01:38;14.40;99.90
4701;DHT22;8724;51.272;6.554;2023-03-21T14:04:13;14.30;99.90
4701;DHT22;8724;51.272;6.554;2023-03-21T14:06:48;14.30;99.90
4701;DHT22;8724;51.272;6.554;2023-03-21T14:09:22;14.40;99.90
4701;DHT22;8724;51.272;6.554;2023-03-21T14:11:52;14.40;99.90
4701;DHT22;8724;51.272;6.554;2023-03-21T14:14:34;14.40;99.90
4701;DHT22;8724;51.272;6.554;2023-03-21T14:17:11;14.40;99.90
4701;DHT22;8724;51.272;6.554;2023-03-21T14:19:39;14.50;99.90
4701;DHT22;8724;51.272;6.554;2023-03-21T14:22:12;14.50;99.90
4701;DHT22;8724;51.272;6.554;2023-03-21T14:24:47;14.20;99.90
4701;DHT22;8724;51.272;6.554;2023-03-21T14:27:15;14.50;99.90
4701;DHT22;8724;51.272;6.554;2023-03-21T14:29:45;14.50;99.90
4701;DHT22;8724;51.272;6.554;2023-03-21T14:32:19;14.50;99.90
4701;DHT22;8724;51.272;6.554;2023-03-21T14:34:49;14.60;99.90
4701;DHT22;8724;51.272;6.554;2023-03-21T14:37:30;14.50;99.90
4701;DHT22;8724;51.272;6.554;2023-03-21T14:40:01;14.50;99.90
4701;DHT22;8724;51.272;6.554;2023-03-21T14:42:35;14.50;99.90
4701;DHT22;8724;51.272;6.554;2023-03-21T14:45:15;14.60;99.90
4701;DHT22;8724;51.272;6.554;2023-03-21T14:47:57;14.60;99.90
4701;DHT22;8724;51.272;6.554;2023-03-21T14:50:33;14.60;99.90
4701;DHT22;8724;51.272;6.554;2023-03-21T14:53:05;14.70;99.90
4701;DHT22;8724;51.272;6.554;2023-03-21T14:55:41;14.70;99.90
4701;DHT22;8724;51.272;6.554;2023-03-21T14:58:12;14.70;99.90
4701;DHT22;8724;51.272;6.554;2023-03-21T15:00:41;14.70;99.90
4701;DHT22;8724;51.272;6.554;2023-03-21T15:03:11;14.70;99.90
4701;DHT22;8724;51.272;6.554;2023-03-21T15:05:41;14.70;99.90
4701;DHT22;8724;51.272;6.554;2023-03-21T15:08:15;14.70;99.90
4701;DHT22;8724;51.272;6.554;2023-03-21T15:10:53;14.80;99.90
4701;DHT22;8724;51.272;6.554;2023-03-21T15:13:35;14.80;99.90
4701;DHT22;8724;51.272;6.554;2023-03-21T15:16:05;14.80;99.90
4701;DHT22;8724;51.272;6.554;2023-03-21T15:18:36;14.80;99.90
4701;DHT22;8724;51.272;6.554;2023-03-21T15:21:08;14.80;99.90
4701;DHT22;8724;51.272;6.554;2023-03-21T15:23:43;14.80;99.90
4701;DHT22;8724;51.272;6.554;2023-03-21T15:26:14;14.80;99.90
4701;DHT22;8724;51.272;6.554;2023-03-21T15:28:44;14.80;99.90
4701;DHT22;8724;51.272;6.554;2023-03-21T15:31:16;14.70;99.90
4701;DHT22;8724;51.272;6.554;2023-03-21T15:33:46;14.80;99.90
4701;DHT22;8724;51.272;6.554;2023-03-21T15:36:18;14.80;99.90
4701;DHT22;8724;51.272;6.554;2023-03-21T15:38:49;14.80;99.90
4701;DHT22;8724;51.272;6.554;2023-03-21T15:41:28;14.80;99.90
4701;DHT22;8724;51.272;6.554;2023-03-21T15:44:04;14.80;99.90
4701;DHT22;8724;51.272;6.554;2023-03-21T15:46:42;14.80;99.90
4701;DHT22;8724;51.272;6.554;2023-03-21T15:49:19;14.80;99.90
4701;DHT22;8724;51.272;6.554;2023-03-21T15:51:51;14.80;99.90
4701;DHT22;8724;51.272;6.554;2023-03-21T15:54:24;14.80;99.90
4701;DHT22;8724;51.272;6.554;2023-03-21T15:56:54;14.80;99.90
4701;DHT22;8724;51.272;6.554;2023-03-21T15:59:26;14.80;99.90
4701;DHT22;8724;51.272;6.554;2023-03-21T16:01:55;14.80;99.90
4701;DHT22;8724;51.272;6.554;2023-03-21T16:04:23;14.80;99.90
4701;DHT22;8724;51.272;6.554;2023-03-21T16:06:57;14.80;99.90
4701;DHT22;8724;51.272;6.554;2023-03-21T16:09:37;14.80;99.90
4701;DHT22;8724;51.272;6.554;2023-03-21T16:12:10;14.80;99.90
4701;DHT22;8724;51.272;6.554;2023-03-21T16:14:39;14.80;99.90
4701;DHT22;8724;51.272;6.554;2023-03-21T16:17:31;14.80;99.90
4701;DHT22;8724;51.272;6.554;2023-03-21T16:20:08;14.80;99.90
4701;DHT22;8724;51.272;6.554;2023-03-21T16:22:40;14.80;99.90
4701;DHT22;8724;51.272;6.554;2023-03-21T16:25:10;14.80;99.90
4701;DHT22;8724;51.272;6.554;2023-03-21T16:27:39;14.80;99.90
4701;DHT22;8724;51.272;6.554;2023-03-21T16:30:10;14.80;99.90
4701;DHT22;8724;51.272;6.554;2023-03-21T16:32:39;14.80;99.90
4701;DHT22;8724;51.272;6.554;2023-03-21T16:35:08;14.80;99.90
4701;DHT22;8724;51.272;6.554;2023-03-21T16:37:37;14.80;99.90
4701;DHT22;8724;51.272;6.554;2023-03-21T16:40:15;14.80;99.90
4701;DHT22;8724;51.272;6.554;2023-03-21T16:42:45;14.80;99.90
4701;DHT22;8724;51.272;6.554;2023-03-21T16:45:14;14.80;99.90
4701;DHT22;8724;51.272;6.554;2023-03-21T16:47:42;14.80;99.90
4701;DHT22;8724;51.272;6.554;2023-03-21T16:50:23;14.80;99.90
4701;DHT22;8724;51.272;6.554;2023-03-21T16:52:53;14.80;99.90